Terminal Aerodrome Forecast
Issued by NWS

Home | Current Version | Previous Version | Text Only | Print | Product List | Glossary On
Versions: 1 2 3 4 5 6 7 8 9 10 11 12 13 14 15 16 17 18 19 20 21 22 23 24 25
000
FTUS43 KDLH 222100 AAA
TAFBRD
TAF AMD
KBRD 222153Z 2222/2318 17008KT 5SM BR SKC
     FM230000 17008KT 4SM BR OVC012
     FM230200 15008KT 4SM -DZ BR OVC007
     FM231200 20006KT 4SM -DZ BR OVC007=

USA.gov is the U.S. government's official web portal to all federal, state and local government web resources and services.